createdAt,value
2018-04-07T00:00:38.402Z,1.8
2018-04-07T00:01:40.831Z,1.4
2018-04-07T00:02:43.266Z,1.4
2018-04-07T00:03:46.083Z,1.5
2018-04-07T00:04:48.800Z,1.8
2018-04-07T00:05:51.219Z,1.4
2018-04-07T00:06:53.934Z,1.8
2018-04-07T00:07:56.367Z,1.8
2018-04-07T00:08:58.799Z,2
2018-04-07T00:10:01.233Z,1.8
2018-04-07T00:11:03.653Z,1.7
2018-04-07T00:12:06.092Z,2
2018-04-07T00:13:08.526Z,1.5
2018-04-07T00:14:10.956Z,1.5
2018-04-07T00:15:13.381Z,1.5
2018-04-07T00:16:16.094Z,1.7
2018-04-07T00:17:18.524Z,1.9
2018-04-07T00:18:20.957Z,1.7
2018-04-07T00:19:23.391Z,1.8
2018-04-07T00:20:25.806Z,1.7
2018-04-07T00:21:28.242Z,1.6
2018-04-07T00:22:30.673Z,1.4
2018-04-07T00:23:33.098Z,1.4
2018-04-07T00:24:35.812Z,1.8
2018-04-07T00:25:38.238Z,1.7
2018-04-07T00:26:40.660Z,1.8
2018-04-07T00:27:43.087Z,1.8
2018-04-07T00:28:45.900Z,1.6
2018-04-07T00:29:48.338Z,1.5
2018-04-07T00:30:50.761Z,1.7
2018-04-07T00:31:53.195Z,1.4
2018-04-07T00:32:55.622Z,1.6
2018-04-07T00:33:58.052Z,1.7
2018-04-07T00:35:00.484Z,1.9
2018-04-07T00:36:02.931Z,2
2018-04-07T00:37:05.355Z,1.8
2018-04-07T00:38:08.373Z,1.5
2018-04-07T00:39:10.803Z,1.9
2018-04-07T00:40:13.227Z,1.4
2018-04-07T00:41:15.936Z,1.4
2018-04-07T00:42:18.360Z,1.4
2018-04-07T00:43:20.789Z,1.4
2018-04-07T00:44:23.222Z,1.8
2018-04-07T00:45:25.649Z,1.9
2018-04-07T00:46:28.369Z,2
2018-04-07T00:47:30.796Z,1.9
2018-04-07T00:48:33.520Z,1.8
2018-04-07T00:49:35.949Z,2.2
2018-04-07T00:50:38.384Z,1.5
2018-04-07T00:51:41.481Z,1.4
2018-04-07T00:52:44.223Z,1.6
2018-04-07T00:53:46.655Z,1.4
2018-04-07T00:54:49.087Z,1.4
2018-04-07T00:55:51.518Z,1.5
2018-04-07T00:56:53.949Z,2.1
2018-04-07T00:57:56.383Z,1.8
2018-04-07T00:58:58.817Z,1.8
2018-04-07T01:00:01.248Z,1.5
2018-04-07T01:01:03.963Z,1.4
2018-04-07T01:02:06.395Z,1.4
2018-04-07T01:03:08.816Z,1.4
2018-04-07T01:04:11.249Z,1.4
2018-04-07T01:05:13.675Z,2
2018-04-07T01:06:16.109Z,1.9
2018-04-07T01:07:18.542Z,1.8
2018-04-07T01:08:20.972Z,1.8
2018-04-07T01:09:23.403Z,1.7
2018-04-07T01:10:25.831Z,1.5
2018-04-07T01:11:28.545Z,1.5
2018-04-07T01:12:30.980Z,1.4
2018-04-07T01:13:33.408Z,2.2
2018-04-07T01:14:35.840Z,1.7
2018-04-07T01:15:38.654Z,1.8
2018-04-07T01:16:41.082Z,1.8
2018-04-07T01:17:43.529Z,1.6
2018-04-07T01:18:45.945Z,1.5
2018-04-07T01:19:48.363Z,1.4
2018-04-07T01:20:50.799Z,1.5
2018-04-07T01:21:53.224Z,2.1
2018-04-07T01:22:55.653Z,1.6
2018-04-07T01:23:58.090Z,1.7
2018-04-07T01:25:00.519Z,1.8
2018-04-07T01:26:02.949Z,1.7
2018-04-07T01:27:05.688Z,1.7
2018-04-07T01:28:08.124Z,1.4
2018-04-07T01:29:10.552Z,1.4
2018-04-07T01:30:12.980Z,1.4
2018-04-07T01:31:15.408Z,2
2018-04-07T01:32:17.837Z,1.8
2018-04-07T01:33:20.553Z,1.9
2018-04-07T01:34:22.989Z,2
2018-04-07T01:35:25.712Z,1.7
2018-04-07T01:36:28.167Z,2
2018-04-07T01:37:30.601Z,1.6
2018-04-07T01:38:33.426Z,1.6
2018-04-07T01:39:35.862Z,1.5
2018-04-07T01:40:38.287Z,1.4
2018-04-07T01:41:40.723Z,1.3
2018-04-07T01:42:43.154Z,1.8
2018-04-07T01:43:45.862Z,2.1
2018-04-07T01:44:48.684Z,1.9
2018-04-07T01:45:51.104Z,1.8
2018-04-07T01:46:53.532Z,2.1
2018-04-07T01:47:55.962Z,1.4
2018-04-07T01:48:58.384Z,1.5
2018-04-07T01:50:01.107Z,1.4
2018-04-07T01:51:03.529Z,1.3
2018-04-07T01:52:06.244Z,1.4
2018-04-07T01:53:08.667Z,1.7
2018-04-07T01:54:11.098Z,1.8
2018-04-07T01:55:13.536Z,1.9
2018-04-07T01:56:16.247Z,1.7
2018-04-07T01:57:18.673Z,1.8
2018-04-07T01:58:21.104Z,1.5
2018-04-07T01:59:23.523Z,1.4
2018-04-07T02:00:25.956Z,1.4
2018-04-07T02:01:28.388Z,1.9
2018-04-07T02:02:31.099Z,1.7
2018-04-07T02:03:33.539Z,2
2018-04-07T02:04:35.968Z,1.9
2018-04-07T02:05:38.790Z,1.6
2018-04-07T02:06:41.225Z,2.2
2018-04-07T02:07:43.641Z,1.6
2018-04-07T02:08:46.070Z,1.5
2018-04-07T02:09:48.797Z,2.2
2018-04-07T02:10:51.216Z,1.3
2018-04-07T02:11:53.651Z,1.4
2018-04-07T02:12:56.082Z,1.6
2018-04-07T02:13:58.501Z,1.8
2018-04-07T02:15:00.945Z,1.7
2018-04-07T02:16:03.365Z,1.7
2018-04-07T02:17:05.785Z,1.6
2018-04-07T02:18:08.220Z,2
2018-04-07T02:19:10.646Z,1.5
2018-04-07T02:20:13.079Z,1.4
2018-04-07T02:21:15.518Z,1.8
2018-04-07T02:22:17.954Z,1.9
2018-04-07T02:23:20.386Z,1.7
2018-04-07T02:24:22.821Z,1.6
2018-04-07T02:25:25.239Z,1.4
2018-04-07T02:26:27.672Z,1.4
2018-04-07T02:27:30.104Z,1.4
2018-04-07T02:28:32.524Z,1.9
2018-04-07T02:29:34.951Z,1.8
2018-04-07T02:30:37.772Z,1.8
2018-04-07T02:31:40.199Z,1.9
2018-04-07T02:32:42.637Z,2.1
2018-04-07T02:33:45.059Z,1.8
2018-04-07T02:34:47.871Z,1.5
2018-04-07T02:35:50.602Z,1.4
2018-04-07T02:36:53.326Z,1.5
2018-04-07T02:37:55.757Z,1.4
2018-04-07T02:38:58.201Z,1.4
2018-04-07T02:40:00.632Z,1.9
2018-04-07T02:41:03.672Z,1.8
2018-04-07T02:42:06.389Z,1.7
2018-04-07T02:43:08.806Z,1.7
2018-04-07T02:44:11.552Z,1.8
2018-04-07T02:45:13.966Z,1.9
2018-04-07T02:46:16.398Z,1.6
2018-04-07T02:47:18.832Z,1.6
2018-04-07T02:48:21.254Z,1.7
2018-04-07T02:49:23.692Z,1.4
2018-04-07T02:50:26.834Z,1.4
2018-04-07T02:51:29.267Z,1.4
2018-04-07T02:52:31.694Z,1.4
2018-04-07T02:53:34.119Z,1.7
2018-04-07T02:54:36.552Z,1.7
2018-04-07T02:55:38.976Z,1.8
2018-04-07T02:56:41.409Z,1.7
2018-04-07T02:57:43.842Z,1.6
2018-04-07T02:58:46.268Z,2.1
2018-04-07T02:59:48.701Z,1.3
2018-04-07T03:00:51.434Z,1.4
2018-04-07T03:01:53.849Z,2
2018-04-07T03:02:56.290Z,1.7
2018-04-07T03:03:58.714Z,1.7
2018-04-07T03:05:01.143Z,2
2018-04-07T03:06:03.585Z,1.5
2018-04-07T03:07:06.005Z,1.5
2018-04-07T03:08:08.436Z,1.3
2018-04-07T03:09:10.865Z,1.4
2018-04-07T03:10:13.594Z,1.7
2018-04-07T03:11:16.024Z,1.7
2018-04-07T03:12:18.737Z,1.8
2018-04-07T03:13:21.168Z,1.6
2018-04-07T03:14:23.600Z,1.8
2018-04-07T03:15:27.006Z,1.6
2018-04-07T03:16:29.437Z,1.7
2018-04-07T03:17:31.876Z,1.6
2018-04-07T03:18:34.598Z,1.8
2018-04-07T03:19:37.314Z,1.4
2018-04-07T03:20:40.025Z,1.5
2018-04-07T03:21:42.739Z,1.5
2018-04-07T03:22:45.162Z,1.3
2018-04-07T03:23:47.606Z,1.4
2018-04-07T03:24:50.029Z,1.4
2018-04-07T03:25:52.451Z,1.6
2018-04-07T03:26:54.888Z,1.7
2018-04-07T03:27:57.319Z,1.7
2018-04-07T03:28:59.758Z,1.9
2018-04-07T03:30:02.203Z,1.5
2018-04-07T03:31:05.017Z,2.1
2018-04-07T03:32:07.449Z,1.4
2018-04-07T03:33:09.882Z,1.3
2018-04-07T03:34:12.305Z,1.4
2018-04-07T03:35:15.021Z,1.8
2018-04-07T03:36:17.451Z,1.8
2018-04-07T03:37:19.877Z,1.7
2018-04-07T03:38:22.689Z,1.7
2018-04-07T03:39:25.120Z,1.8
2018-04-07T03:40:27.854Z,1.9
2018-04-07T03:41:30.290Z,1.6
2018-04-07T03:42:32.721Z,1.4
2018-04-07T03:43:35.435Z,1.3
2018-04-07T03:44:38.153Z,1.3
2018-04-07T03:45:40.582Z,1.4
2018-04-07T03:46:43.297Z,1.8
2018-04-07T03:47:45.730Z,1.8
2018-04-07T03:48:48.164Z,1.9
2018-04-07T03:49:50.587Z,1.8
2018-04-07T03:50:53.018Z,1.6
2018-04-07T03:51:55.446Z,1.5
2018-04-07T03:52:57.874Z,1.5
2018-04-07T03:54:00.310Z,1.4
2018-04-07T03:55:03.022Z,1.4
2018-04-07T03:56:05.461Z,1.8
2018-04-07T03:57:08.264Z,1.7
2018-04-07T03:58:10.994Z,1.9
2018-04-07T03:59:13.421Z,1.9
2018-04-07T04:00:16.520Z,1.8
2018-04-07T04:01:18.951Z,1.9
2018-04-07T04:02:21.373Z,1.7
2018-04-07T04:03:24.085Z,1.8
2018-04-07T04:04:26.517Z,1.6
2018-04-07T04:05:29.215Z,1.7
2018-04-07T04:06:31.648Z,1.4
2018-04-07T04:07:34.078Z,1.4
2018-04-07T04:08:36.785Z,1.4
2018-04-07T04:09:39.505Z,1.8
2018-04-07T04:10:41.938Z,1.9
2018-04-07T04:11:44.371Z,1.8
2018-04-07T04:12:46.807Z,1.8
2018-04-07T04:13:49.233Z,1.7
2018-04-07T04:14:51.958Z,1.6
2018-04-07T04:15:54.690Z,1.6
2018-04-07T04:16:57.692Z,1.7
2018-04-07T04:18:00.118Z,1.5
2018-04-07T04:19:02.828Z,1.3
2018-04-07T04:20:05.263Z,1.4
2018-04-07T04:21:07.685Z,1.3
2018-04-07T04:22:10.110Z,1.4
2018-04-07T04:23:12.830Z,1.7
2018-04-07T04:24:15.259Z,1.8
2018-04-07T04:25:17.688Z,1.8
2018-04-07T04:26:20.120Z,1.7
2018-04-07T04:27:22.541Z,1.7
2018-04-07T04:28:24.975Z,1.7
2018-04-07T04:29:27.407Z,1.5
2018-04-07T04:30:29.834Z,1.4
2018-04-07T04:31:32.255Z,1.7
2018-04-07T04:32:34.691Z,1.8
2018-04-07T04:33:37.120Z,1.9
2018-04-07T04:34:39.852Z,1.7
2018-04-07T04:35:42.281Z,1.7
2018-04-07T04:36:44.711Z,1.6
2018-04-07T04:37:47.423Z,1.4
2018-04-07T04:38:50.239Z,1.4
2018-04-07T04:39:52.946Z,1.3
2018-04-07T04:40:55.374Z,1.4
2018-04-07T04:41:57.812Z,1.4
2018-04-07T04:43:00.241Z,1.7
2018-04-07T04:44:03.055Z,1.6
2018-04-07T04:45:05.485Z,1.8
2018-04-07T04:46:07.912Z,1.8
2018-04-07T04:47:10.624Z,1.7
2018-04-07T04:48:13.055Z,1.7
2018-04-07T04:49:15.469Z,1.4
2018-04-07T04:50:17.913Z,1.3
2018-04-07T04:51:20.644Z,1.3
2018-04-07T04:52:23.071Z,1.3
2018-04-07T04:53:25.494Z,2.1
2018-04-07T04:54:28.217Z,1.8
2018-04-07T04:55:30.648Z,1.7
2018-04-07T04:56:33.057Z,1.8
2018-04-07T04:57:35.498Z,1.7
2018-04-07T04:58:37.922Z,1.4
2018-04-07T04:59:40.348Z,1.4
2018-04-07T05:00:43.067Z,1.4
2018-04-07T05:01:45.492Z,1.4
2018-04-07T05:02:47.922Z,1.8
2018-04-07T05:03:50.362Z,1.7
2018-04-07T05:04:53.077Z,1.7
2018-04-07T05:05:55.506Z,1.7
2018-04-07T05:06:57.942Z,1.6
2018-04-07T05:08:00.656Z,1.4
2018-04-07T05:09:03.381Z,1.6
2018-04-07T05:10:05.810Z,1.6
2018-04-07T05:11:08.235Z,1.4
2018-04-07T05:12:10.664Z,1.5
2018-04-07T05:13:13.088Z,1.4
2018-04-07T05:14:15.510Z,1.7
2018-04-07T05:15:17.947Z,1.7
2018-04-07T05:16:20.656Z,1.9
2018-04-07T05:17:23.370Z,1.6
2018-04-07T05:18:25.798Z,1.7
2018-04-07T05:19:28.226Z,1.6
2018-04-07T05:20:30.663Z,1.4
2018-04-07T05:21:33.096Z,1.3
2018-04-07T05:22:35.520Z,1.5
2018-04-07T05:23:37.953Z,1.7
2018-04-07T05:24:40.376Z,1.8
2018-04-07T05:25:43.092Z,1.9
2018-04-07T05:26:45.531Z,1.7
2018-04-07T05:27:47.945Z,1.8
2018-04-07T05:28:50.370Z,1.3
2018-04-07T05:29:52.807Z,1.3
2018-04-07T05:30:55.228Z,1.4
2018-04-07T05:31:57.658Z,2
2018-04-07T05:33:00.378Z,1.6
2018-04-07T05:34:03.376Z,1.8
2018-04-07T05:35:06.185Z,2.1
2018-04-07T05:36:08.623Z,1.8
2018-04-07T05:37:11.042Z,1.7
2018-04-07T05:38:13.469Z,2
2018-04-07T05:39:16.278Z,1.5
2018-04-07T05:40:18.706Z,1.6
2018-04-07T05:41:21.126Z,1.7
2018-04-07T05:42:23.553Z,1.4
2018-04-07T05:43:25.985Z,1.4
2018-04-07T05:44:28.413Z,1.8
2018-04-07T05:45:30.841Z,1.9
2018-04-07T05:46:33.282Z,1.7
2018-04-07T05:47:35.703Z,1.9
2018-04-07T05:48:38.133Z,1.6
2018-04-07T05:49:40.558Z,1.4
2018-04-07T05:50:42.982Z,1.4
2018-04-07T05:51:45.415Z,1.4
2018-04-07T05:52:47.846Z,1.7
2018-04-07T05:53:50.264Z,1.8
2018-04-07T05:54:52.698Z,1.9
2018-04-07T05:55:55.414Z,1.6
2018-04-07T05:56:58.137Z,1.8
2018-04-07T05:58:00.563Z,1.6
2018-04-07T05:59:02.993Z,1.4
2018-04-07T06:00:05.412Z,1.4
2018-04-07T06:01:07.853Z,1.9
2018-04-07T06:02:10.848Z,1.7
2018-04-07T06:03:13.274Z,2
2018-04-07T06:04:15.705Z,2.2
2018-04-07T06:05:18.126Z,1.8
2018-04-07T06:06:20.844Z,2
2018-04-07T06:07:23.272Z,1.6
2018-04-07T06:08:25.704Z,1.6
2018-04-07T06:09:28.121Z,1.5
2018-04-07T06:10:30.549Z,1.4
2018-04-07T06:11:32.979Z,1.8
2018-04-07T06:12:35.413Z,1.8
2018-04-07T06:13:38.133Z,2
2018-04-07T06:14:40.840Z,1.7
2018-04-07T06:15:43.279Z,1.6
2018-04-07T06:16:45.709Z,1.9
2018-04-07T06:17:48.137Z,1.7
2018-04-07T06:18:50.567Z,1.4
2018-04-07T06:19:53.276Z,1.4
2018-04-07T06:20:55.706Z,1.5
2018-04-07T06:21:58.429Z,1.8
2018-04-07T06:23:01.161Z,2.2
2018-04-07T06:24:04.001Z,1.9
2018-04-07T06:25:06.427Z,2.3
2018-04-07T06:26:08.857Z,1.8
2018-04-07T06:27:11.670Z,1.8
2018-04-07T06:28:14.092Z,2
2018-04-07T06:29:16.519Z,2
2018-04-07T06:30:18.942Z,1.8
2018-04-07T06:31:21.374Z,1.7
2018-04-07T06:32:23.804Z,2.1
2018-04-07T06:33:26.241Z,1.6
2018-04-07T06:34:29.263Z,1.9
2018-04-07T06:35:31.978Z,2.1
2018-04-07T06:36:34.393Z,2.2
2018-04-07T06:37:36.823Z,2.1
2018-04-07T06:38:39.262Z,1.8
2018-04-07T06:39:41.683Z,1.8
2018-04-07T06:40:44.117Z,1.6
2018-04-07T06:41:46.546Z,1.5
2018-04-07T06:42:49.258Z,1.6
2018-04-07T06:43:51.981Z,2.1
2018-04-07T06:44:54.410Z,2
2018-04-07T06:45:56.830Z,2.2
2018-04-07T06:46:59.265Z,2.2
2018-04-07T06:48:02.170Z,1.9
2018-04-07T06:49:04.553Z,1.8
2018-04-07T06:50:06.980Z,1.7
2018-04-07T06:51:09.691Z,1.8
2018-04-07T06:52:12.128Z,1.9
2018-04-07T06:53:14.552Z,1.5
2018-04-07T06:54:16.986Z,1.8
2018-04-07T06:55:19.428Z,2
2018-04-07T06:56:21.858Z,1.8
2018-04-07T06:57:24.288Z,2
2018-04-07T06:58:26.997Z,2
2018-04-07T06:59:29.418Z,2.1
2018-04-07T07:00:31.904Z,2.2
2018-04-07T07:01:34.285Z,1.6
2018-04-07T07:02:36.712Z,2
2018-04-07T07:03:39.431Z,1.9
2018-04-07T07:04:41.857Z,2.6
2018-04-07T07:05:44.289Z,2.2
2018-04-07T07:06:46.722Z,2.2
2018-04-07T07:07:49.154Z,1.7
2018-04-07T07:08:51.581Z,1.9
2018-04-07T07:09:54.314Z,1.6
2018-04-07T07:10:56.700Z,2.2
2018-04-07T07:11:59.083Z,2.3
2018-04-07T07:13:01.738Z,2.2
2018-04-07T07:14:04.111Z,2.2
2018-04-07T07:15:06.608Z,2.1
2018-04-07T07:16:08.984Z,1.8
2018-04-07T07:17:11.468Z,1.7
2018-04-07T07:18:13.848Z,1.7
2018-04-07T07:19:16.454Z,1.6
2018-04-07T07:20:19.104Z,2.2
2018-04-07T07:21:21.482Z,2.5
2018-04-07T07:22:23.869Z,2.3
2018-04-07T07:23:26.250Z,2.3
2018-04-07T07:24:28.623Z,1.9
2018-04-07T07:25:31.225Z,2.3
2018-04-07T07:26:34.190Z,2.3
2018-04-07T07:27:36.957Z,1.8
2018-04-07T07:28:39.340Z,1.8
2018-04-07T07:29:41.720Z,2.3
2018-04-07T07:30:44.480Z,2.4
2018-04-07T07:31:46.914Z,2.4
2018-04-07T07:32:50.016Z,2.3
2018-04-07T07:33:52.956Z,2.4
2018-04-07T07:34:55.333Z,2
2018-04-07T07:35:57.712Z,2.2
2018-04-07T07:37:00.458Z,2.1
2018-04-07T07:38:03.077Z,2.8
2018-04-07T07:39:05.455Z,2.1
2018-04-07T07:40:07.841Z,2.2
2018-04-07T07:41:10.215Z,1.9
2018-04-07T07:42:12.604Z,2.3
2018-04-07T07:43:14.972Z,2.3
2018-04-07T07:44:17.634Z,2.2
2018-04-07T07:45:20.614Z,2.1
2018-04-07T07:46:22.998Z,2.2
2018-04-07T07:47:25.384Z,2
2018-04-07T07:48:27.761Z,2
2018-04-07T07:49:30.431Z,2
2018-04-07T07:50:33.200Z,2
2018-04-07T07:51:35.576Z,2.6
2018-04-07T07:52:37.947Z,2.6
2018-04-07T07:53:40.324Z,2.3
2018-04-07T07:54:42.948Z,2.2
2018-04-07T07:55:45.325Z,2.2
2018-04-07T07:56:48.021Z,2.3
2018-04-07T07:57:50.400Z,2
2018-04-07T07:58:53.063Z,2
2018-04-07T07:59:55.850Z,2.2
2018-04-07T08:00:58.171Z,2.4
2018-04-07T08:02:00.538Z,2.1
2018-04-07T08:03:03.661Z,2
2018-04-07T08:04:06.039Z,2.5
2018-04-07T08:05:08.758Z,2.4
2018-04-07T08:06:11.139Z,2.1
2018-04-07T08:07:13.510Z,2.2
2018-04-07T08:08:15.898Z,2.1
2018-04-07T08:09:18.575Z,2.7
2018-04-07T08:10:20.951Z,2.5
2018-04-07T08:11:23.331Z,2.7
2018-04-07T08:12:25.706Z,2.5
2018-04-07T08:13:28.080Z,2.3
2018-04-07T08:14:30.468Z,2.1
2018-04-07T08:15:32.845Z,2.4
2018-04-07T08:16:35.226Z,2
2018-04-07T08:17:37.894Z,2.3
2018-04-07T08:18:41.266Z,2.7
2018-04-07T08:19:43.642Z,2.8
2018-04-07T08:20:46.068Z,2.5
2018-04-07T08:21:48.409Z,2.9
2018-04-07T08:22:50.784Z,2.5
2018-04-07T08:23:53.169Z,2.2
2018-04-07T08:24:55.741Z,2.6
2018-04-07T08:25:58.110Z,2
2018-04-07T08:27:00.502Z,2.7
2018-04-07T08:28:03.168Z,2.6
2018-04-07T08:29:05.551Z,2.5
2018-04-07T08:30:08.603Z,2.4
2018-04-07T08:31:11.270Z,2.9
2018-04-07T08:32:13.784Z,2.5
2018-04-07T08:33:16.036Z,2.5
2018-04-07T08:34:19.097Z,2.9
2018-04-07T08:35:21.478Z,2.5
2018-04-07T08:36:24.147Z,3
2018-04-07T08:37:26.940Z,2.2
2018-04-07T08:38:29.332Z,3.1
2018-04-07T08:39:32.223Z,2.7
2018-04-07T08:40:34.554Z,2.8
2018-04-07T08:41:36.936Z,2.5
2018-04-07T08:42:39.609Z,2.4
2018-04-07T08:43:41.990Z,2.7
2018-04-07T08:44:44.675Z,2.4
2018-04-07T08:45:47.449Z,2.9
2018-04-07T08:46:50.114Z,2.2
2018-04-07T08:47:52.495Z,2.5
2018-04-07T08:48:54.874Z,2.9
2018-04-07T08:49:57.262Z,3
2018-04-07T08:50:59.655Z,2.4
2018-04-07T08:52:02.347Z,2.7
2018-04-07T08:53:05.008Z,2.4
2018-04-07T08:54:07.398Z,3.2
2018-04-07T08:55:09.787Z,2.6
2018-04-07T08:56:12.179Z,2.4
2018-04-07T08:57:14.558Z,2.9
2018-04-07T08:58:17.223Z,3.2
2018-04-07T08:59:19.610Z,2.4
2018-04-07T09:00:21.994Z,2.6
2018-04-07T09:01:24.418Z,2.7
2018-04-07T09:02:26.831Z,2.3
2018-04-07T09:03:29.224Z,3.1
2018-04-07T09:04:32.094Z,3
2018-04-07T09:05:34.515Z,2.9
2018-04-07T09:06:36.901Z,2.5
2018-04-07T09:07:40.058Z,2.5
2018-04-07T09:08:42.535Z,2.3
2018-04-07T09:09:44.965Z,2.7
2018-04-07T09:10:47.439Z,3
2018-04-07T09:11:49.841Z,3.1
2018-04-07T09:12:52.269Z,3.4
2018-04-07T09:13:54.658Z,3.1
2018-04-07T09:14:57.065Z,2.6
2018-04-07T09:15:59.452Z,2.7
2018-04-07T09:17:01.954Z,3.1
2018-04-07T09:18:04.347Z,2.9
2018-04-07T09:19:07.036Z,3.3
2018-04-07T09:20:09.445Z,3.4
2018-04-07T09:21:11.871Z,3.2
2018-04-07T09:22:14.905Z,2.9
2018-04-07T09:23:17.341Z,3.2
2018-04-07T09:24:19.845Z,3.3
2018-04-07T09:25:22.302Z,3
2018-04-07T09:26:24.708Z,2.9
2018-04-07T09:27:27.095Z,2.9
2018-04-07T09:28:29.493Z,3.4
2018-04-07T09:29:32.198Z,3.4
2018-04-07T09:30:35.334Z,2.9
2018-04-07T09:31:37.958Z,2.8
2018-04-07T09:32:40.697Z,2.9
2018-04-07T09:33:43.239Z,3.3
2018-04-07T09:34:45.630Z,3.3
2018-04-07T09:35:48.014Z,3.2
2018-04-07T09:36:50.397Z,3.1
2018-04-07T09:37:52.796Z,3.2
2018-04-07T09:38:55.457Z,3.2
2018-04-07T09:39:58.515Z,2.9
2018-04-07T09:41:00.910Z,2.9
2018-04-07T09:42:03.640Z,3
2018-04-07T09:43:06.028Z,3.2
2018-04-07T09:44:08.412Z,3.2
2018-04-07T09:45:10.796Z,3.4
2018-04-07T09:46:13.187Z,3.4
2018-04-07T09:47:15.588Z,3.3
2018-04-07T09:48:17.974Z,3.4
2018-04-07T09:49:20.364Z,2.8
2018-04-07T09:50:23.038Z,3.4
2018-04-07T09:51:25.432Z,3.9
2018-04-07T09:52:27.822Z,3.7
2018-04-07T09:53:30.211Z,3.5
2018-04-07T09:54:32.590Z,3.5
2018-04-07T09:55:34.975Z,3.4
2018-04-07T09:56:37.356Z,3.7
2018-04-07T09:57:39.748Z,3.5
2018-04-07T09:58:42.132Z,3.9
2018-04-07T09:59:44.872Z,3.4
2018-04-07T10:00:47.218Z,3.2
2018-04-07T10:01:49.624Z,3.5
2018-04-07T10:02:52.316Z,4
2018-04-07T10:03:54.701Z,3.6
2018-04-07T10:04:57.082Z,3.8
2018-04-07T10:05:59.477Z,3.9
2018-04-07T10:07:02.146Z,3.5
2018-04-07T10:08:04.536Z,3.5
2018-04-07T10:09:06.924Z,3.7
2018-04-07T10:10:09.312Z,3.8
2018-04-07T10:11:11.708Z,3.7
2018-04-07T10:12:14.101Z,3.7
2018-04-07T10:13:16.864Z,3.4
2018-04-07T10:14:19.559Z,4.2
2018-04-07T10:15:21.949Z,3.8
2018-04-07T10:16:24.338Z,3.8
2018-04-07T10:17:26.725Z,3.7
2018-04-07T10:18:29.115Z,3.7
2018-04-07T10:19:31.510Z,3.5
2018-04-07T10:20:33.902Z,4.2
2018-04-07T10:21:36.566Z,3.8
2018-04-07T10:22:38.968Z,3.7
2018-04-07T10:23:41.350Z,3.7
2018-04-07T10:24:43.744Z,3.4
2018-04-07T10:25:46.126Z,3.7
2018-04-07T10:26:48.518Z,3.8
2018-04-07T10:27:50.905Z,3.9
2018-04-07T10:28:53.302Z,3.9
2018-04-07T10:29:55.979Z,3.9
2018-04-07T10:30:58.372Z,3.8
2018-04-07T10:32:00.758Z,3.9
2018-04-07T10:33:03.608Z,3.7
2018-04-07T10:34:06.010Z,3.4
2018-04-07T10:35:08.395Z,3.9
2018-04-07T10:36:11.069Z,4.1
2018-04-07T10:37:13.464Z,3.8
2018-04-07T10:38:16.232Z,4
2018-04-07T10:39:19.012Z,3.7
2018-04-07T10:40:21.394Z,3.6
2018-04-07T10:41:23.782Z,3.9
2018-04-07T10:42:26.165Z,4.4
2018-04-07T10:43:28.563Z,4.6
2018-04-07T10:44:30.950Z,3.8
2018-04-07T10:45:33.342Z,3.9
2018-04-07T10:46:35.744Z,4
2018-04-07T10:47:38.135Z,4.4
2018-04-07T10:48:40.516Z,4.4
2018-04-07T10:49:42.912Z,4.1
2018-04-07T10:50:45.307Z,4.1
2018-04-07T10:51:47.980Z,4.7
2018-04-07T10:52:50.809Z,4.2
2018-04-07T10:53:53.195Z,4.6
2018-04-07T10:54:55.868Z,4.3
2018-04-07T10:55:58.547Z,4.1
2018-04-07T10:57:00.938Z,4.2
2018-04-07T10:58:03.604Z,4.5
2018-04-07T10:59:06.383Z,4.4
2018-04-07T11:00:09.334Z,4.1
2018-04-07T11:01:11.731Z,4.2
2018-04-07T11:02:14.121Z,4.4
2018-04-07T11:03:16.510Z,4.8
2018-04-07T11:04:18.905Z,4.4
2018-04-07T11:05:21.583Z,4.4
2018-04-07T11:06:24.259Z,4.3
2018-04-07T11:07:26.653Z,4.1
2018-04-07T11:08:29.052Z,4.1
2018-04-07T11:09:31.440Z,4.4
2018-04-07T11:10:34.159Z,5.1
2018-04-07T11:11:36.815Z,4.4
2018-04-07T11:12:39.587Z,4.5
2018-04-07T11:13:41.984Z,4.4
2018-04-07T11:14:44.379Z,4.6
2018-04-07T11:15:47.051Z,4.4
2018-04-07T11:16:49.442Z,4.4
2018-04-07T11:17:51.849Z,4.4
2018-04-07T11:18:54.630Z,4.8
2018-04-07T11:19:57.015Z,4.5
2018-04-07T11:20:59.700Z,4.3
2018-04-07T11:22:02.481Z,4.4
2018-04-07T11:23:05.253Z,4.5
2018-04-07T11:24:07.643Z,4.6
2018-04-07T11:25:10.035Z,4.6
2018-04-07T11:26:12.724Z,4.6
2018-04-07T11:27:15.408Z,4.8
2018-04-07T11:28:18.190Z,4.9
2018-04-07T11:29:20.959Z,4.7
2018-04-07T11:30:23.352Z,4.5
2018-04-07T11:31:25.744Z,4.4
2018-04-07T11:32:28.135Z,4.4
2018-04-07T11:33:30.534Z,4.2
2018-04-07T11:34:32.920Z,4.6
2018-04-07T11:35:35.314Z,4.9
2018-04-07T11:36:37.717Z,4.7
2018-04-07T11:37:40.115Z,4.5
2018-04-07T11:38:42.782Z,4.9
2018-04-07T11:39:45.173Z,4.7
2018-04-07T11:40:47.558Z,4.4
2018-04-07T11:41:49.961Z,4.6
2018-04-07T11:42:52.634Z,4.6
2018-04-07T11:43:55.018Z,4.6
2018-04-07T11:44:57.422Z,4.7
2018-04-07T11:45:59.825Z,4.6
2018-04-07T11:47:02.217Z,4.8
2018-04-07T11:48:04.611Z,4.7
2018-04-07T11:49:07.008Z,4.6
2018-04-07T11:50:09.704Z,5
2018-04-07T11:51:12.093Z,4.8
2018-04-07T11:52:14.490Z,4.8
2018-04-07T11:53:16.879Z,4.6
2018-04-07T11:54:19.281Z,4.8
2018-04-07T11:55:21.672Z,4.7
2018-04-07T11:56:24.064Z,4.6
2018-04-07T11:57:26.887Z,4.8
2018-04-07T11:58:29.238Z,4.8
2018-04-07T11:59:31.621Z,5
2018-04-07T12:00:34.017Z,5.3
2018-04-07T12:01:37.077Z,5
2018-04-07T12:02:39.824Z,5.8
2018-04-07T12:03:42.203Z,4.9
2018-04-07T12:04:44.603Z,4.7
2018-04-07T12:05:47.003Z,4.9
2018-04-07T12:06:49.672Z,4.9
2018-04-07T12:07:52.088Z,5.2
2018-04-07T12:08:54.470Z,5.1
2018-04-07T12:09:57.138Z,5
2018-04-07T12:10:59.540Z,4.9
2018-04-07T12:12:01.942Z,5.2
2018-04-07T12:13:04.719Z,5.1
2018-04-07T12:14:07.104Z,5.1
2018-04-07T12:15:09.498Z,5.1
2018-04-07T12:16:11.881Z,4.9
2018-04-07T12:17:14.280Z,4.9
2018-04-07T12:18:16.675Z,4.7
2018-04-07T12:19:19.067Z,4.8
2018-04-07T12:20:21.465Z,4.9
2018-04-07T12:21:24.154Z,5
2018-04-07T12:22:26.556Z,5.1
2018-04-07T12:23:28.959Z,4.9
2018-04-07T12:24:31.355Z,4.8
2018-04-07T12:25:34.142Z,4.8
2018-04-07T12:26:36.807Z,5
2018-04-07T12:27:39.208Z,5.7
2018-04-07T12:28:41.616Z,5.3
2018-04-07T12:29:44.006Z,4.9
2018-04-07T12:30:47.061Z,5.3
2018-04-07T12:31:49.461Z,5
2018-04-07T12:32:52.145Z,5.3
2018-04-07T12:33:54.967Z,5.5
2018-04-07T12:34:57.344Z,5.1
2018-04-07T12:35:59.788Z,5.1
2018-04-07T12:37:02.294Z,5.2
2018-04-07T12:38:05.069Z,4.9
2018-04-07T12:39:07.523Z,5.4
2018-04-07T12:40:09.979Z,5.4
2018-04-07T12:41:12.716Z,5.5
2018-04-07T12:42:15.530Z,5.5
2018-04-07T12:43:17.975Z,5.4
2018-04-07T12:44:21.136Z,5.8
2018-04-07T12:45:23.604Z,6.1
2018-04-07T12:47:17.413Z,5.7
2018-04-07T12:48:20.161Z,5.6
2018-04-07T12:49:22.605Z,5.5
2018-04-07T12:50:25.064Z,5.6
2018-04-07T12:51:27.759Z,5.6
2018-04-07T12:52:31.421Z,5.6
2018-04-07T12:53:34.268Z,5.7
2018-04-07T12:54:36.713Z,5.5
2018-04-07T12:55:39.162Z,5.4
2018-04-07T12:56:41.614Z,5.4
2018-04-07T12:57:44.075Z,5.8
2018-04-07T12:58:46.832Z,5.5
2018-04-07T12:59:49.284Z,5.5
2018-04-07T13:00:51.748Z,5.6
2018-04-07T13:01:54.197Z,5.6
2018-04-07T13:02:56.651Z,5.5
2018-04-07T13:03:59.092Z,5.7
2018-04-07T13:05:01.539Z,5.7
2018-04-07T13:06:04.287Z,5.6
2018-04-07T13:07:06.737Z,5.7
2018-04-07T13:08:09.509Z,5.3
2018-04-07T13:09:11.964Z,5.7
2018-04-07T13:10:14.404Z,5.8
2018-04-07T13:11:16.914Z,5.8
2018-04-07T13:12:19.372Z,5.9
2018-04-07T13:13:21.826Z,5.6
2018-04-07T13:14:24.282Z,6.3
2018-04-07T13:15:27.029Z,5.9
2018-04-07T13:16:29.479Z,5.8
2018-04-07T13:17:31.949Z,6.2
2018-04-07T13:18:34.406Z,5.7
2018-04-07T13:19:36.852Z,6.1
2018-04-07T13:20:39.300Z,5.7
2018-04-07T13:21:41.750Z,6.1
2018-04-07T13:22:44.205Z,5.7
2018-04-07T13:23:46.660Z,5.8
2018-04-07T13:24:49.102Z,5.7
2018-04-07T13:25:51.555Z,5.6
2018-04-07T13:26:54.006Z,5.8
2018-04-07T13:27:56.738Z,5.6
2018-04-07T13:28:59.478Z,5.9
2018-04-07T13:30:01.930Z,5.8
2018-04-07T13:31:04.382Z,5.9
2018-04-07T13:32:07.133Z,5.7
2018-04-07T13:33:09.580Z,5.6
2018-04-07T13:34:12.064Z,5.8
2018-04-07T13:35:14.476Z,5.8
2018-04-07T13:36:17.229Z,5.8
2018-04-07T13:37:19.962Z,6
2018-04-07T13:38:22.419Z,5.8
2018-04-07T13:39:24.866Z,5.8
2018-04-07T13:40:27.322Z,5.6
2018-04-07T13:41:29.774Z,5.7
2018-04-07T13:42:32.220Z,5.7
2018-04-07T13:43:34.666Z,5.7
2018-04-07T13:44:37.117Z,5.4
2018-04-07T13:45:39.955Z,5.7
2018-04-07T13:46:42.403Z,5.8
2018-04-07T13:47:45.148Z,5.7
2018-04-07T13:48:47.603Z,5.5
2018-04-07T13:49:50.045Z,5.8
2018-04-07T13:50:52.502Z,5.7
2018-04-07T13:51:54.952Z,6
2018-04-07T13:52:57.403Z,5.8
2018-04-07T13:53:59.854Z,5.6
2018-04-07T13:55:02.316Z,5.9
2018-04-07T13:56:04.762Z,5.5
2018-04-07T13:57:07.211Z,5.8
2018-04-07T13:58:09.658Z,5.7
2018-04-07T13:59:12.102Z,6
2018-04-07T14:00:14.562Z,5.8
2018-04-07T14:01:17.011Z,5.8
2018-04-07T14:02:19.458Z,5.7
2018-04-07T14:03:21.906Z,5.8
2018-04-07T14:04:24.413Z,5.8
2018-04-07T14:05:27.197Z,5.8
2018-04-07T14:06:29.652Z,5.7
2018-04-07T14:07:32.100Z,5.6
2018-04-07T14:08:34.550Z,5.4
2018-04-07T14:09:36.998Z,5.8
2018-04-07T14:10:39.475Z,5.6
2018-04-07T14:11:41.888Z,5.5
2018-04-07T14:12:44.335Z,5.7
2018-04-07T14:13:46.779Z,5.6
2018-04-07T14:14:49.228Z,5.9
2018-04-07T14:15:52.063Z,5.4
2018-04-07T14:16:54.522Z,5.6
2018-04-07T14:17:56.976Z,5.2
2018-04-07T14:18:59.467Z,5.4
2018-04-07T14:20:01.888Z,5.8
2018-04-07T14:21:04.641Z,5.3
2018-04-07T14:22:07.092Z,5.9
2018-04-07T14:23:09.547Z,6.6
2018-04-07T14:24:11.988Z,5.5
2018-04-07T14:25:15.107Z,5.7